Aviation Digital Data Service (ADDS)

Output produced by METARs form (1308 UTC 30 July 2014)
found at http://aviationweather.gov/adds/metars/
 
KGMU 301122Z 3012/3112 03007KT P6SM SCT060